AKDT,Max TemperatureF,Mean TemperatureF,Min TemperatureF,Max Dew PointF,MeanDew PointF,Min DewpointF,Max Humidity, Mean Humidity, Min Humidity, Max Sea Level PressureIn, Mean Sea Level PressureIn, Min Sea Level PressureIn, Max VisibilityMiles, Mean VisibilityMiles, Min VisibilityMiles, Max Wind SpeedMPH, Mean Wind SpeedMPH, Max Gust SpeedMPH,PrecipitationIn, CloudCover, Events, WindDirDegrees
2012-10-1,51,40,30,37,31,27,87,76,44,30.47,30.09,29.84,10,10,10,10,2,,0.00,1,,330
2012-10-2,46,37,28,39,33,23,87,80,71,30.63,30.57,30.47,10,10,10,7,1,,0.00,3,,292
2012-10-3,48,44,41,39,37,36,87,78,66,30.51,30.49,30.47,10,10,7,10,4,,0.00,8,,330
2012-10-4,46,44,42,43,41,39,87,85,81,30.52,30.49,30.48,10,6,2,8,5,,0.00,8,,332
2012-10-5,51,48,46,46,45,43,93,87,82,30.54,30.51,30.47,10,6,0,6,3,,0.00,8,,310
2012-10-6,53,50,46,48,45,43,93,86,76,30.47,30.41,30.37,10,8,2,8,2,,0.00,7,,280
2012-10-7,53,48,42,46,43,39,93,83,71,30.37,30.31,30.23,10,9,2,7,1,,0.00,7,,272
2012-10-8,55,48,42,45,42,39,93,80,63,30.22,30.16,30.09,10,10,7,7,2,,0.00,7,,316
2012-10-9,53,48,42,43,41,39,93,81,67,30.09,30.07,30.05,10,8,0,7,3,,0.00,7,,326
2012-10-10,53,48,44,43,41,39,87,77,62,30.10,30.02,29.91,10,10,10,6,2,,0.00,7,,353
2012-10-11,50,46,42,43,38,30,87,73,54,29.90,29.75,29.51,10,10,10,7,2,,0.00,8,,275
2012-10-12,46,42,39,37,35,30,87,77,53,29.50,29.33,29.28,10,9,4,9,1,,0.00,8,,269
2012-10-13,48,44,39,43,41,36,93,84,76,29.47,29.42,29.30,10,10,6,18,7,28,0.00,8,,124
2012-10-14,48,44,42,43,41,37,87,84,76,29.35,29.10,29.01,10,10,9,16,7,20,0.00,7,,343
2012-10-15,48,44,41,43,39,37,87,80,71,29.33,29.18,29.02,10,10,4,15,7,23,0.00,8,,133
2012-10-16,44,40,35,39,36,28,93,81,65,29.87,29.45,29.09,10,9,2,14,4,26,0.00,7,,148
2012-10-17,44,38,33,36,31,28,87,75,57,29.92,29.73,29.57,10,10,8,13,4,21,0.00,7,,115
2012-10-18,44,37,30,34,32,27,87,75,61,29.79,29.74,29.67,10,10,9,17,7,25,0.00,7,,142
2012-10-19,44,35,26,32,24,18,93,64,39,29.77,29.69,29.65,10,10,3,14,6,24,0.00,3,,331
2012-10-20,44,40,35,19,16,10,52,40,31,30.08,29.92,29.78,10,10,10,20,11,25,0.00,3,,348
2012-10-21,41,37,33,12,10,9,38,33,29,30.20,30.17,30.08,10,10,10,18,12,31,0.00,0,,350
2012-10-22,44,38,33,14,12,10,44,34,27,30.18,30.12,30.05,10,10,10,14,8,21,0.00,0,,354
2012-10-23,46,36,26,16,15,12,64,41,29,30.16,30.10,30.04,10,10,10,13,6,20,0.00,0,,3
2012-10-24,42,35,26,14,12,10,55,38,29,30.42,30.26,30.16,10,10,10,15,7,20,0.00,0,,354
2012-10-25,41,31,21,16,11,9,74,46,29,30.47,30.44,30.40,10,10,10,10,5,16,0.00,0,,1
2012-10-26,39,27,15,18,12,7,73,58,36,30.40,30.29,30.13,10,10,10,7,1,,0.00,0,,333
2012-10-27,39,26,12,19,8,3,79,50,26,30.13,30.00,29.92,10,10,10,14,3,22,0.00,0,,1
2012-10-28,39,32,24,9,6,3,47,32,26,29.98,29.95,29.93,10,10,10,20,7,29,0.00,0,,13
2012-10-29,39,32,24,18,7,1,59,35,24,29.97,29.95,29.92,10,10,10,12,6,20,0.00,1,,64
2012-10-30,39,36,32,28,22,10,75,59,35,29.94,29.84,29.69,10,10,3,28,15,40,0.00,8,,141
2012-10-31,41,39,37,32,30,27,81,68,57,29.72,29.65,29.61,10,10,9,22,16,32,0.00,8,,144